createdAt,value
2023-03-29T00:00:46.354Z,43.44
2023-03-29T00:01:48.158Z,43.73
2023-03-29T00:02:50.183Z,43.55
2023-03-29T00:03:54.517Z,43.72
2023-03-29T00:04:57.680Z,43.50
2023-03-29T00:06:03.215Z,43.17
2023-03-29T00:07:05.059Z,43.53
2023-03-29T00:08:07.385Z,43.40
2023-03-29T00:09:10.188Z,43.25
2023-03-29T00:10:13.129Z,43.27
2023-03-29T00:11:17.931Z,43.08
2023-03-29T00:12:19.784Z,43.24
2023-03-29T00:13:21.468Z,43.12
2023-03-29T00:14:23.082Z,43.25
2023-03-29T00:15:24.888Z,43.32
2023-03-29T00:16:27.018Z,43.09
2023-03-29T00:17:28.963Z,43.54
2023-03-29T00:18:30.622Z,44.15
2023-03-29T00:19:35.680Z,43.96
2023-03-29T00:20:37.491Z,44.37
2023-03-29T00:21:41.538Z,44.63
2023-03-29T00:22:46.820Z,44.30
2023-03-29T00:23:50.926Z,44.51
2023-03-29T00:24:54.149Z,44.44
2023-03-29T00:25:56.562Z,44.49
2023-03-29T00:26:58.377Z,44.08
2023-03-29T00:28:00.015Z,44.33
2023-03-29T00:29:01.723Z,44.54
2023-03-29T00:30:05.574Z,44.71
2023-03-29T00:31:13.035Z,44.36
2023-03-29T00:32:15.586Z,44.93
2023-03-29T00:33:20.586Z,45.00
2023-03-29T00:34:30.625Z,44.81
2023-03-29T00:35:32.587Z,45.03
2023-03-29T00:36:34.630Z,45.05
2023-03-29T00:37:36.879Z,45.10
2023-03-29T00:38:39.299Z,44.66
2023-03-29T00:39:42.065Z,44.39
2023-03-29T00:40:47.020Z,44.48
2023-03-29T00:41:50.340Z,44.60
2023-03-29T00:42:52.182Z,44.46
2023-03-29T00:43:58.253Z,44.69
2023-03-29T00:45:06.175Z,44.42
2023-03-29T00:46:09.044Z,44.37
2023-03-29T00:47:13.531Z,44.09
2023-03-29T00:48:24.379Z,44.07
2023-03-29T00:49:26.319Z,44.14
2023-03-29T00:50:39.443Z,43.96
2023-03-29T00:51:42.678Z,43.95
2023-03-29T00:52:48.672Z,43.94
2023-03-29T00:53:55.599Z,43.80
2023-03-29T00:55:02.029Z,44.02
2023-03-29T00:56:18.452Z,43.95
2023-03-29T00:57:21.715Z,44.36
2023-03-29T00:58:38.232Z,44.27
2023-03-29T00:59:44.680Z,44.37
2023-03-29T01:00:57.843Z,44.16
2023-03-29T01:02:05.320Z,44.00
2023-03-29T01:03:13.891Z,44.10
2023-03-29T01:04:29.250Z,44.04
2023-03-29T01:05:39.273Z,44.10
2023-03-29T01:06:43.378Z,43.91
2023-03-29T01:07:57.949Z,44.51
2023-03-29T01:09:03.106Z,44.38
2023-03-29T01:10:12.585Z,44.30
2023-03-29T01:11:22.229Z,44.85
2023-03-29T01:12:31.092Z,44.97
2023-03-29T01:13:46.534Z,44.70
2023-03-29T01:15:01.506Z,45.07
2023-03-29T01:16:04.069Z,45.09
2023-03-29T01:17:06.944Z,45.17
2023-03-29T01:18:09.539Z,45.19
2023-03-29T01:19:15.898Z,44.94
2023-03-29T01:20:30.776Z,45.04
2023-03-29T01:21:42.694Z,45.06
2023-03-29T01:23:14.318Z,44.97
2023-03-29T01:24:38.208Z,44.94
2023-03-29T01:26:17.308Z,45.46
2023-03-29T01:27:55.731Z,46.23
2023-03-29T01:29:06.958Z,46.86
2023-03-29T01:30:14.194Z,47.26
2023-03-29T01:31:25.183Z,47.03
2023-03-29T01:32:36.608Z,46.50
2023-03-29T01:33:47.624Z,46.68
2023-03-29T01:34:56.766Z,46.63
2023-03-29T01:36:19.066Z,47.32
2023-03-29T01:37:26.695Z,46.58
2023-03-29T01:38:43.188Z,46.46
2023-03-29T01:39:46.254Z,46.44
2023-03-29T01:40:48.008Z,46.47
2023-03-29T01:42:04.452Z,46.70
2023-03-29T01:43:23.467Z,46.14
2023-03-29T01:44:56.431Z,47.29
2023-03-29T01:46:01.700Z,46.51
2023-03-29T01:47:21.624Z,46.19
2023-03-29T01:48:31.535Z,46.20
2023-03-29T01:49:52.207Z,46.48
2023-03-29T01:51:04.587Z,46.94
2023-03-29T01:52:06.261Z,47.18
2023-03-29T01:53:14.034Z,47.13
2023-03-29T01:54:26.311Z,46.91
2023-03-29T01:55:41.580Z,46.81
2023-03-29T01:56:45.604Z,46.57
2023-03-29T01:57:49.209Z,46.83
2023-03-29T01:58:58.306Z,46.55
2023-03-29T02:00:05.423Z,46.85
2023-03-29T02:01:19.086Z,47.00
2023-03-29T02:02:23.132Z,47.08
2023-03-29T02:03:28.176Z,47.27
2023-03-29T02:04:38.529Z,47.28
2023-03-29T02:05:46.005Z,46.89
2023-03-29T02:06:50.157Z,46.96
2023-03-29T02:07:52.946Z,46.81
2023-03-29T02:08:55.773Z,46.65
2023-03-29T02:09:58.872Z,46.43
2023-03-29T02:11:01.541Z,46.57
2023-03-29T02:12:05.001Z,46.26
2023-03-29T02:13:10.079Z,46.57
2023-03-29T02:14:13.849Z,46.39
2023-03-29T02:15:19.402Z,46.60
2023-03-29T02:16:21.268Z,46.69
2023-03-29T02:17:25.806Z,47.23
2023-03-29T02:18:27.781Z,46.76
2023-03-29T02:19:29.762Z,46.81
2023-03-29T02:20:40.579Z,46.76
2023-03-29T02:21:48.389Z,46.57
2023-03-29T02:23:02.109Z,46.34
2023-03-29T02:24:11.811Z,46.15
2023-03-29T02:25:13.799Z,46.21
2023-03-29T02:26:17.588Z,46.47
2023-03-29T02:27:25.370Z,46.49
2023-03-29T02:28:28.563Z,46.02
2023-03-29T02:29:30.701Z,45.98
2023-03-29T02:30:57.731Z,46.00
2023-03-29T02:32:21.968Z,46.28
2023-03-29T02:33:52.096Z,46.38
2023-03-29T02:35:16.845Z,46.54
2023-03-29T02:36:27.413Z,46.60
2023-03-29T02:37:32.734Z,46.31
2023-03-29T02:38:39.110Z,46.21
2023-03-29T02:39:42.053Z,46.42
2023-03-29T02:40:46.786Z,46.54
2023-03-29T02:41:51.113Z,46.53
2023-03-29T02:42:55.639Z,46.74
2023-03-29T02:44:00.409Z,46.73
2023-03-29T02:45:04.962Z,46.67
2023-03-29T02:46:08.003Z,46.73
2023-03-29T02:47:15.633Z,46.73
2023-03-29T02:48:20.845Z,46.37
2023-03-29T02:49:23.599Z,46.56
2023-03-29T02:50:30.716Z,46.30
2023-03-29T02:51:34.363Z,46.39
2023-03-29T02:52:43.478Z,46.40
2023-03-29T02:53:52.610Z,46.26
2023-03-29T02:54:55.871Z,46.55
2023-03-29T02:56:02.337Z,46.66
2023-03-29T02:57:07.586Z,46.63
2023-03-29T02:58:09.331Z,46.59
2023-03-29T02:59:14.399Z,46.80
2023-03-29T03:00:18.820Z,46.92
2023-03-29T03:01:20.782Z,46.52
2023-03-29T03:02:27.818Z,46.58
2023-03-29T03:03:33.090Z,46.72
2023-03-29T03:04:36.357Z,46.83
2023-03-29T03:05:39.140Z,46.89
2023-03-29T03:06:41.695Z,46.93
2023-03-29T03:07:46.114Z,47.05
2023-03-29T03:08:48.647Z,47.49
2023-03-29T03:09:50.242Z,47.47
2023-03-29T03:10:52.580Z,47.24
2023-03-29T03:11:54.334Z,46.88
2023-03-29T03:12:58.936Z,46.84
2023-03-29T03:14:00.956Z,47.91
2023-03-29T03:15:08.004Z,47.72
2023-03-29T03:16:13.276Z,47.68
2023-03-29T03:17:18.746Z,47.48
2023-03-29T03:18:22.600Z,47.56
2023-03-29T03:19:24.806Z,47.25
2023-03-29T03:20:26.573Z,47.60
2023-03-29T03:21:30.085Z,47.96
2023-03-29T03:22:35.048Z,48.12
2023-03-29T03:23:39.716Z,47.76
2023-03-29T03:24:41.961Z,47.82
2023-03-29T03:25:45.997Z,47.61
2023-03-29T03:26:49.959Z,47.51
2023-03-29T03:27:54.207Z,47.47
2023-03-29T03:29:01.189Z,47.77
2023-03-29T03:30:23.327Z,47.25
2023-03-29T03:31:30.796Z,47.52
2023-03-29T03:32:50.002Z,47.15
2023-03-29T03:34:14.203Z,47.45
2023-03-29T03:35:23.758Z,47.26
2023-03-29T03:36:26.285Z,47.18
2023-03-29T03:37:29.337Z,47.46
2023-03-29T03:38:31.125Z,47.28
2023-03-29T03:39:34.650Z,47.11
2023-03-29T03:40:39.370Z,47.33
2023-03-29T03:41:41.139Z,47.21
2023-03-29T03:42:42.970Z,47.44
2023-03-29T03:43:48.776Z,47.38
2023-03-29T03:44:51.078Z,47.42
2023-03-29T03:46:19.228Z,47.36
2023-03-29T03:47:21.451Z,47.69
2023-03-29T03:48:25.801Z,47.52
2023-03-29T03:49:40.922Z,47.55
2023-03-29T03:50:49.037Z,47.61
2023-03-29T03:51:52.592Z,47.55
2023-03-29T03:52:54.569Z,47.88
2023-03-29T03:53:56.723Z,48.28
2023-03-29T03:55:10.890Z,48.42
2023-03-29T03:56:34.212Z,48.01
2023-03-29T03:57:39.086Z,47.89
2023-03-29T03:58:46.283Z,47.80
2023-03-29T03:59:49.205Z,47.87
2023-03-29T04:00:55.973Z,48.04
2023-03-29T04:02:11.147Z,47.68
2023-03-29T04:03:18.021Z,47.70
2023-03-29T04:04:19.914Z,48.02
2023-03-29T04:05:46.440Z,47.94
2023-03-29T04:06:50.565Z,47.89
2023-03-29T04:08:12.581Z,48.04
2023-03-29T04:09:33.507Z,48.28
2023-03-29T04:10:56.763Z,48.25
2023-03-29T04:12:03.547Z,48.12
2023-03-29T04:13:05.959Z,47.98
2023-03-29T04:14:11.457Z,48.09
2023-03-29T04:15:27.046Z,47.90
2023-03-29T04:16:37.611Z,47.93
2023-03-29T04:18:00.637Z,47.72
2023-03-29T04:19:08.326Z,48.14
2023-03-29T04:20:12.367Z,47.84
2023-03-29T04:21:16.972Z,48.33
2023-03-29T04:22:19.760Z,48.05
2023-03-29T04:23:21.454Z,47.96
2023-03-29T04:24:24.941Z,48.08
2023-03-29T04:25:46.601Z,48.11
2023-03-29T04:27:17.332Z,47.96
2023-03-29T04:28:19.596Z,48.17
2023-03-29T04:29:39.215Z,48.13
2023-03-29T04:44:28.931Z,48.82
2023-03-29T04:45:33.280Z,48.57
2023-03-29T04:46:58.333Z,48.71
2023-03-29T04:48:26.577Z,48.60
2023-03-29T04:49:29.018Z,48.22
2023-03-29T04:50:30.922Z,48.39
2023-03-29T04:51:33.181Z,48.34
2023-03-29T04:52:35.532Z,48.46
2023-03-29T04:53:39.332Z,48.05
2023-03-29T04:54:41.166Z,48.34
2023-03-29T04:55:55.617Z,48.23
2023-03-29T04:57:17.081Z,48.30
2023-03-29T04:58:32.226Z,48.50
2023-03-29T04:59:35.143Z,48.30
2023-03-29T05:00:42.977Z,48.67
2023-03-29T05:02:05.327Z,48.96
2023-03-29T05:03:07.429Z,48.63
2023-03-29T05:04:14.177Z,48.81
2023-03-29T05:05:29.267Z,49.18
2023-03-29T05:06:37.299Z,48.84
2023-03-29T05:07:41.150Z,49.00
2023-03-29T05:08:44.690Z,48.66
2023-03-29T05:10:07.065Z,48.69
2023-03-29T05:11:10.859Z,49.28
2023-03-29T05:12:12.970Z,49.46
2023-03-29T05:13:26.461Z,49.27
2023-03-29T05:14:28.056Z,49.34
2023-03-29T05:15:32.737Z,49.32
2023-03-29T05:16:35.650Z,49.55
2023-03-29T05:17:37.788Z,49.76
2023-03-29T05:18:43.735Z,49.85
2023-03-29T05:19:48.422Z,49.87
2023-03-29T05:20:53.120Z,49.61
2023-03-29T05:21:56.124Z,49.50
2023-03-29T05:23:00.514Z,49.76
2023-03-29T05:24:31.034Z,49.56
2023-03-29T05:25:36.168Z,49.16
2023-03-29T05:26:38.473Z,49.30
2023-03-29T05:27:40.483Z,49.42
2023-03-29T05:28:44.254Z,49.22
2023-03-29T05:29:46.644Z,49.15
2023-03-29T05:31:11.288Z,48.95
2023-03-29T05:32:15.001Z,49.23
2023-03-29T05:33:19.541Z,49.13
2023-03-29T05:34:21.342Z,49.23
2023-03-29T05:35:30.318Z,49.31
2023-03-29T05:36:33.862Z,49.50
2023-03-29T05:37:35.778Z,49.33
2023-03-29T05:38:41.121Z,49.33
2023-03-29T05:39:43.177Z,49.27
2023-03-29T05:40:44.998Z,49.16
2023-03-29T05:42:19.243Z,48.78
2023-03-29T05:43:28.241Z,49.07
2023-03-29T05:44:30.382Z,48.84
2023-03-29T05:45:40.447Z,48.94
2023-03-29T05:46:42.188Z,48.88
2023-03-29T05:47:48.528Z,48.84
2023-03-29T05:48:50.609Z,48.72
2023-03-29T05:49:53.312Z,48.95
2023-03-29T05:50:59.412Z,48.73
2023-03-29T05:52:04.094Z,48.74
2023-03-29T05:53:08.000Z,48.81
2023-03-29T05:54:09.939Z,48.74
2023-03-29T05:55:11.975Z,48.77
2023-03-29T05:56:16.295Z,48.77
2023-03-29T05:57:18.474Z,48.92
2023-03-29T05:58:21.673Z,49.19
2023-03-29T05:59:24.547Z,49.00
2023-03-29T06:00:30.025Z,48.94
2023-03-29T06:01:46.966Z,48.89
2023-03-29T06:02:52.845Z,48.71
2023-03-29T06:03:57.896Z,48.59
2023-03-29T06:05:07.085Z,48.69
2023-03-29T06:06:16.458Z,48.88
2023-03-29T06:07:18.443Z,48.83
2023-03-29T06:08:35.747Z,48.94
2023-03-29T06:09:42.765Z,48.78
2023-03-29T06:10:45.723Z,48.85
2023-03-29T06:12:21.028Z,49.07
2023-03-29T06:13:34.078Z,48.97
2023-03-29T06:14:36.488Z,49.01
2023-03-29T06:15:57.364Z,49.18
2023-03-29T06:17:01.871Z,49.08
2023-03-29T06:18:04.584Z,48.99
2023-03-29T06:19:07.329Z,49.22
2023-03-29T06:20:11.782Z,48.97
2023-03-29T06:21:16.860Z,48.94
2023-03-29T06:22:18.498Z,49.16
2023-03-29T06:23:21.369Z,49.68
2023-03-29T06:24:25.020Z,49.77
2023-03-29T06:25:34.152Z,49.88
2023-03-29T06:26:38.667Z,49.84
2023-03-29T06:27:40.375Z,49.39
2023-03-29T06:28:42.200Z,49.28
2023-03-29T06:29:43.958Z,48.97
2023-03-29T06:30:46.045Z,49.13
2023-03-29T06:31:48.288Z,49.15
2023-03-29T06:33:10.619Z,48.99
2023-03-29T06:34:32.787Z,49.13
2023-03-29T06:35:50.403Z,48.97
2023-03-29T06:36:57.687Z,48.85
2023-03-29T06:37:59.386Z,48.43
2023-03-29T06:39:08.769Z,48.54
2023-03-29T06:40:29.408Z,48.22
2023-03-29T06:41:33.411Z,48.45
2023-03-29T06:42:43.180Z,48.44
2023-03-29T06:44:11.652Z,48.52
2023-03-29T06:45:29.317Z,48.28
2023-03-29T06:46:34.216Z,48.26
2023-03-29T06:47:40.945Z,48.29
2023-03-29T06:48:42.765Z,47.79
2023-03-29T06:49:44.462Z,47.97
2023-03-29T06:51:02.227Z,47.60
2023-03-29T06:52:05.947Z,47.54
2023-03-29T06:53:07.910Z,47.43
2023-03-29T06:54:10.370Z,47.54
2023-03-29T06:55:17.753Z,47.47
2023-03-29T06:56:19.544Z,47.28
2023-03-29T06:57:28.601Z,47.14
2023-03-29T06:58:30.547Z,47.42
2023-03-29T06:59:43.175Z,47.30
2023-03-29T07:00:51.765Z,47.07
2023-03-29T07:02:02.766Z,47.26
2023-03-29T07:03:27.940Z,46.87
2023-03-29T07:04:32.232Z,47.31
2023-03-29T07:05:48.381Z,47.29
2023-03-29T07:07:01.474Z,47.44
2023-03-29T07:08:07.813Z,47.33
2023-03-29T07:09:32.310Z,47.71
2023-03-29T07:10:53.385Z,47.72
2023-03-29T07:12:01.451Z,47.19
2023-03-29T07:13:03.040Z,47.22
2023-03-29T07:14:04.724Z,47.19
2023-03-29T07:15:07.777Z,46.96
2023-03-29T07:16:32.685Z,47.05
2023-03-29T07:17:50.569Z,47.03
2023-03-29T07:18:52.723Z,46.90
2023-03-29T07:20:17.838Z,46.82
2023-03-29T07:21:22.896Z,47.19
2023-03-29T07:22:24.561Z,46.96
2023-03-29T07:23:30.943Z,46.85
2023-03-29T07:24:32.609Z,47.25
2023-03-29T07:25:34.352Z,46.95
2023-03-29T07:26:36.555Z,47.10
2023-03-29T07:27:40.274Z,46.61
2023-03-29T07:28:43.155Z,46.78
2023-03-29T07:29:45.094Z,46.51
2023-03-29T07:30:46.881Z,46.62
2023-03-29T07:31:51.812Z,46.72
2023-03-29T07:33:14.482Z,46.71
2023-03-29T07:34:37.172Z,46.86
2023-03-29T07:35:43.451Z,46.39
2023-03-29T07:36:45.204Z,46.25
2023-03-29T07:37:47.578Z,46.47
2023-03-29T07:38:49.934Z,46.38
2023-03-29T07:39:54.593Z,46.25
2023-03-29T07:41:10.738Z,46.18
2023-03-29T07:42:28.922Z,46.32
2023-03-29T07:43:30.885Z,46.04
2023-03-29T07:44:33.606Z,46.19
2023-03-29T07:45:35.571Z,45.98
2023-03-29T07:46:44.525Z,46.17
2023-03-29T07:47:53.636Z,46.02
2023-03-29T07:48:57.761Z,46.23
2023-03-29T07:49:59.752Z,46.30
2023-03-29T07:51:02.001Z,46.34
2023-03-29T07:52:09.164Z,46.26
2023-03-29T07:53:17.100Z,46.33
2023-03-29T07:54:18.880Z,46.44
2023-03-29T07:55:47.581Z,46.50
2023-03-29T07:57:10.977Z,46.65
2023-03-29T07:58:20.159Z,46.09
2023-03-29T07:59:22.286Z,46.19
2023-03-29T08:00:45.892Z,46.26
2023-03-29T08:02:11.055Z,46.19
2023-03-29T08:03:24.903Z,46.05
2023-03-29T08:04:28.929Z,45.71
2023-03-29T08:05:49.560Z,45.70
2023-03-29T08:06:52.424Z,45.76
2023-03-29T08:07:59.406Z,45.33
2023-03-29T08:09:14.705Z,44.65
2023-03-29T08:10:21.108Z,44.57
2023-03-29T08:11:46.779Z,44.39
2023-03-29T08:12:54.510Z,44.55
2023-03-29T08:14:03.358Z,44.64
2023-03-29T08:15:28.241Z,44.51
2023-03-29T08:16:30.046Z,44.07
2023-03-29T08:17:41.690Z,43.86
2023-03-29T08:18:45.856Z,44.01
2023-03-29T08:19:51.007Z,43.99
2023-03-29T08:20:55.951Z,43.87
2023-03-29T08:21:57.544Z,44.27
2023-03-29T08:23:01.323Z,43.90
2023-03-29T08:24:17.584Z,43.12
2023-03-29T08:25:23.943Z,43.18
2023-03-29T08:26:28.290Z,43.44
2023-03-29T08:27:33.106Z,43.47
2023-03-29T08:28:35.711Z,43.20
2023-03-29T08:29:37.342Z,43.38
2023-03-29T08:30:39.707Z,43.18
2023-03-29T08:31:41.634Z,42.84
2023-03-29T08:32:47.702Z,43.43
2023-03-29T08:33:51.575Z,42.74
2023-03-29T08:35:16.053Z,42.78
2023-03-29T08:36:26.431Z,42.53
2023-03-29T08:37:32.680Z,42.18
2023-03-29T08:38:35.465Z,42.02
2023-03-29T08:39:38.127Z,42.03
2023-03-29T08:41:31.888Z,42.07
2023-03-29T08:43:09.821Z,42.08
2023-03-29T08:45:01.351Z,41.90
2023-03-29T08:46:16.435Z,41.96
2023-03-29T08:47:32.853Z,41.87
2023-03-29T08:48:47.478Z,41.74
2023-03-29T08:49:55.603Z,41.67
2023-03-29T08:51:15.469Z,41.56
2023-03-29T08:52:25.797Z,41.16
2023-03-29T08:53:44.152Z,40.86
2023-03-29T08:55:31.985Z,40.92
2023-03-29T08:56:54.383Z,40.59
2023-03-29T08:58:08.454Z,40.00
2023-03-29T08:59:22.752Z,40.09
2023-03-29T09:00:28.537Z,39.89
2023-03-29T09:01:35.349Z,39.68
2023-03-29T09:02:38.278Z,39.71
2023-03-29T09:03:50.294Z,39.49
2023-03-29T09:05:29.395Z,39.53
2023-03-29T09:06:58.224Z,38.47
2023-03-29T09:08:13.433Z,38.05
2023-03-29T09:09:20.701Z,37.81
2023-03-29T09:10:53.544Z,37.72
2023-03-29T09:12:23.264Z,38.15
2023-03-29T09:13:32.781Z,38.30
2023-03-29T09:14:48.421Z,38.07
2023-03-29T09:16:01.405Z,38.09
2023-03-29T09:17:32.549Z,37.94
2023-03-29T09:19:06.337Z,37.44
2023-03-29T09:20:22.857Z,38.08
2023-03-29T09:21:46.459Z,38.20
2023-03-29T09:23:27.272Z,38.14
2023-03-29T09:25:21.285Z,37.86
2023-03-29T09:26:47.646Z,37.95
2023-03-29T09:28:32.116Z,37.96
2023-03-29T09:30:12.259Z,37.94
2023-03-29T09:31:37.186Z,37.85
2023-03-29T09:32:52.583Z,37.97
2023-03-29T09:33:59.771Z,37.86
2023-03-29T09:35:18.428Z,37.88
2023-03-29T09:36:40.652Z,37.54
2023-03-29T09:37:42.548Z,37.14
2023-03-29T09:38:50.903Z,36.83
2023-03-29T09:39:53.526Z,37.00
2023-03-29T09:41:16.394Z,37.42
2023-03-29T09:42:19.866Z,37.49
2023-03-29T09:43:36.180Z,37.54
2023-03-29T09:45:08.867Z,37.87
2023-03-29T09:46:34.327Z,37.73
2023-03-29T09:47:46.268Z,37.58
2023-03-29T09:48:50.201Z,37.81
2023-03-29T09:49:57.592Z,37.79
2023-03-29T09:51:01.516Z,37.78
2023-03-29T09:52:09.196Z,37.55
2023-03-29T09:53:11.039Z,37.62
2023-03-29T09:54:20.755Z,38.00
2023-03-29T09:55:44.880Z,37.98
2023-03-29T09:57:13.841Z,37.88
2023-03-29T09:58:27.632Z,38.12
2023-03-29T09:59:30.696Z,37.92
2023-03-29T10:00:34.749Z,37.82
2023-03-29T10:01:41.983Z,37.92
2023-03-29T10:02:53.747Z,38.06
2023-03-29T10:04:01.560Z,38.00
2023-03-29T10:05:07.461Z,37.70
2023-03-29T10:06:12.205Z,37.64
2023-03-29T10:07:20.660Z,37.59
2023-03-29T10:08:50.887Z,37.39
2023-03-29T10:09:58.417Z,38.43
2023-03-29T10:11:03.686Z,38.90
2023-03-29T10:12:07.094Z,39.61
2023-03-29T10:13:46.097Z,40.68
2023-03-29T10:14:57.493Z,41.46
2023-03-29T10:16:04.451Z,41.83
2023-03-29T10:17:22.301Z,42.54
2023-03-29T10:18:27.675Z,42.14
2023-03-29T10:19:34.992Z,42.37
2023-03-29T10:20:40.166Z,42.26
2023-03-29T10:21:42.411Z,43.19
2023-03-29T10:22:54.321Z,42.67
2023-03-29T10:23:59.542Z,42.94
2023-03-29T10:25:02.141Z,42.51
2023-03-29T10:26:23.999Z,42.44
2023-03-29T10:27:30.786Z,42.51
2023-03-29T10:28:35.073Z,42.66
2023-03-29T10:29:41.057Z,42.77
2023-03-29T10:30:45.912Z,42.63
2023-03-29T10:31:47.970Z,42.96
2023-03-29T10:32:58.033Z,43.12
2023-03-29T10:34:06.335Z,42.93
2023-03-29T10:35:12.974Z,42.71
2023-03-29T10:36:15.464Z,42.53
2023-03-29T10:37:19.528Z,42.05
2023-03-29T10:38:24.521Z,41.86
2023-03-29T10:39:29.750Z,41.78
2023-03-29T10:40:36.008Z,41.67
2023-03-29T10:41:37.798Z,41.63
2023-03-29T10:42:49.901Z,41.78
2023-03-29T10:43:52.066Z,41.63
2023-03-29T10:44:59.540Z,41.52
2023-03-29T10:46:19.458Z,41.30
2023-03-29T10:47:25.163Z,41.39
2023-03-29T10:48:30.769Z,41.60
2023-03-29T10:49:41.111Z,41.51
2023-03-29T10:50:48.309Z,41.82
2023-03-29T10:51:52.314Z,41.50
2023-03-29T10:52:56.960Z,41.13
2023-03-29T10:53:59.355Z,41.02
2023-03-29T10:55:01.090Z,40.85
2023-03-29T10:56:16.229Z,41.09
2023-03-29T10:57:56.208Z,40.93
2023-03-29T10:59:16.250Z,40.88
2023-03-29T11:00:33.021Z,40.89
2023-03-29T11:01:42.131Z,41.04
2023-03-29T11:03:17.060Z,41.02
2023-03-29T11:04:19.967Z,41.34
2023-03-29T11:05:46.638Z,41.62
2023-03-29T11:07:28.791Z,41.16
2023-03-29T11:08:36.930Z,40.74
2023-03-29T11:09:57.317Z,41.07
2023-03-29T11:11:35.220Z,40.69
2023-03-29T11:12:40.009Z,41.08
2023-03-29T11:13:59.347Z,40.98
2023-03-29T11:15:20.435Z,40.56
2023-03-29T11:16:31.074Z,40.72
2023-03-29T11:17:44.723Z,40.36
2023-03-29T11:19:09.318Z,40.35
2023-03-29T11:20:43.564Z,40.44
2023-03-29T11:21:45.722Z,40.59
2023-03-29T11:23:16.431Z,40.13
2023-03-29T11:24:50.613Z,40.35
2023-03-29T11:25:54.867Z,40.53
2023-03-29T11:27:07.305Z,40.03
2023-03-29T11:28:35.290Z,39.98
2023-03-29T11:30:06.567Z,39.24
2023-03-29T11:31:27.198Z,39.80
2023-03-29T11:32:51.931Z,39.20
2023-03-29T11:34:06.132Z,39.01
2023-03-29T11:35:42.792Z,39.22
2023-03-29T11:36:57.793Z,39.48
2023-03-29T11:38:19.864Z,39.43
2023-03-29T11:39:41.717Z,38.77
2023-03-29T11:41:20.603Z,38.68
2023-03-29T11:42:32.212Z,38.55
2023-03-29T11:44:02.411Z,39.05
2023-03-29T11:45:06.138Z,38.62
2023-03-29T11:46:11.082Z,38.29
2023-03-29T11:47:37.255Z,38.57
2023-03-29T11:48:55.595Z,38.29
2023-03-29T11:50:03.736Z,37.60
2023-03-29T11:51:15.524Z,37.16
2023-03-29T11:52:29.047Z,37.05
2023-03-29T11:53:43.357Z,37.30
2023-03-29T11:55:18.271Z,37.33
2023-03-29T11:56:29.177Z,37.50
2023-03-29T11:57:56.970Z,37.36
2023-03-29T11:59:04.698Z,37.61
2023-03-29T12:00:22.329Z,37.57
2023-03-29T12:01:31.698Z,37.15
2023-03-29T12:02:40.301Z,36.82
2023-03-29T12:04:02.165Z,36.15
2023-03-29T12:05:13.769Z,36.84
2023-03-29T12:06:34.811Z,36.83
2023-03-29T12:07:43.863Z,36.86
2023-03-29T12:08:56.670Z,36.97
2023-03-29T12:10:16.725Z,36.87
2023-03-29T12:11:18.826Z,37.04
2023-03-29T12:12:48.283Z,37.29
2023-03-29T12:14:03.726Z,36.78
2023-03-29T12:15:11.255Z,36.66
2023-03-29T12:16:32.604Z,36.43
2023-03-29T12:17:41.914Z,36.83
2023-03-29T12:18:48.393Z,36.99
2023-03-29T12:20:01.641Z,36.88
2023-03-29T12:21:11.890Z,36.88
2023-03-29T12:22:13.818Z,36.79
2023-03-29T12:24:20.856Z,36.77
2023-03-29T12:25:38.079Z,36.37
2023-03-29T12:26:46.469Z,36.56
2023-03-29T12:28:04.966Z,36.69
2023-03-29T12:29:21.732Z,37.07
2023-03-29T12:30:27.286Z,37.67
2023-03-29T12:31:32.538Z,37.89
2023-03-29T12:33:05.052Z,37.31
2023-03-29T12:34:35.095Z,37.43
2023-03-29T12:36:04.605Z,37.45
2023-03-29T12:37:52.765Z,37.92
2023-03-29T12:39:31.373Z,37.85
2023-03-29T12:41:02.141Z,37.63
2023-03-29T12:42:53.516Z,38.25
2023-03-29T12:44:23.527Z,37.62
2023-03-29T12:45:48.364Z,37.57
2023-03-29T12:46:59.960Z,37.67
2023-03-29T12:48:01.910Z,37.42
2023-03-29T12:49:19.855Z,37.67
2023-03-29T12:50:28.590Z,37.54
2023-03-29T12:51:33.069Z,37.76
2023-03-29T12:52:36.653Z,37.82
2023-03-29T12:53:50.893Z,37.84
2023-03-29T12:54:57.971Z,37.53
2023-03-29T12:56:02.998Z,37.67
2023-03-29T12:57:45.015Z,37.93
2023-03-29T12:59:05.346Z,37.85
2023-03-29T13:01:25.026Z,37.58
2023-03-29T13:02:37.087Z,38.07
2023-03-29T13:03:49.534Z,38.59
2023-03-29T13:05:01.533Z,37.91
2023-03-29T13:06:05.466Z,37.82
2023-03-29T13:07:16.958Z,37.80
2023-03-29T13:08:35.128Z,37.67
2023-03-29T13:09:53.462Z,37.68
2023-03-29T13:10:59.147Z,37.46
2023-03-29T13:12:08.851Z,37.59
2023-03-29T13:13:26.535Z,37.76
2023-03-29T13:14:31.906Z,37.25
2023-03-29T13:15:35.584Z,37.31
2023-03-29T13:16:40.541Z,37.28
2023-03-29T13:17:43.288Z,37.44
2023-03-29T13:19:13.716Z,37.59
2023-03-29T13:20:43.289Z,37.30
2023-03-29T13:21:55.489Z,37.37
2023-03-29T13:23:03.823Z,37.83
2023-03-29T13:24:37.140Z,37.42
2023-03-29T13:26:00.272Z,38.04
2023-03-29T13:27:05.283Z,37.98
2023-03-29T13:28:37.791Z,37.71
2023-03-29T13:29:51.400Z,38.01
2023-03-29T13:30:54.078Z,37.18
2023-03-29T13:31:58.696Z,37.10
2023-03-29T13:33:09.704Z,37.31
2023-03-29T13:34:11.866Z,37.21
2023-03-29T13:35:26.770Z,36.74
2023-03-29T13:36:58.736Z,36.35
2023-03-29T13:38:03.666Z,36.89
2023-03-29T13:39:16.327Z,36.85
2023-03-29T13:40:33.220Z,36.91
2023-03-29T13:41:41.149Z,36.83
2023-03-29T13:42:43.088Z,36.62
2023-03-29T13:43:54.168Z,36.11
2023-03-29T13:45:13.204Z,35.91
2023-03-29T13:46:41.359Z,36.09
2023-03-29T13:47:58.437Z,35.93
2023-03-29T13:49:19.789Z,35.34
2023-03-29T13:50:36.901Z,35.17
2023-03-29T13:51:42.067Z,35.03
2023-03-29T13:53:11.040Z,34.70
2023-03-29T13:54:13.089Z,34.92
2023-03-29T13:55:26.318Z,35.43
2023-03-29T13:56:55.095Z,35.83
2023-03-29T13:58:04.174Z,35.33
2023-03-29T13:59:15.136Z,34.67
2023-03-29T14:00:23.171Z,34.77
2023-03-29T14:02:02.914Z,34.48
2023-03-29T14:03:14.471Z,34.66
2023-03-29T14:04:21.914Z,34.78
2023-03-29T14:05:31.490Z,34.21
2023-03-29T14:06:37.210Z,34.07
2023-03-29T14:07:45.588Z,34.16
2023-03-29T14:08:49.485Z,34.05
2023-03-29T14:09:51.586Z,34.12
2023-03-29T14:10:54.437Z,33.80
2023-03-29T14:11:58.588Z,34.10
2023-03-29T14:13:03.834Z,33.53
2023-03-29T14:14:08.247Z,33.89
2023-03-29T14:15:21.447Z,34.17
2023-03-29T14:16:31.471Z,34.55
2023-03-29T14:17:36.595Z,34.52
2023-03-29T14:18:42.320Z,34.33
2023-03-29T14:19:44.575Z,34.23
2023-03-29T14:20:53.604Z,34.46
2023-03-29T14:22:01.707Z,34.29
2023-03-29T14:23:19.270Z,34.53
2023-03-29T14:24:23.387Z,33.13
2023-03-29T14:25:29.484Z,31.58
2023-03-29T14:26:33.530Z,32.13
2023-03-29T14:27:37.264Z,32.16
2023-03-29T14:28:46.853Z,32.34
2023-03-29T14:29:51.561Z,31.71
2023-03-29T14:30:54.240Z,31.96
2023-03-29T14:32:13.833Z,31.77
2023-03-29T14:33:38.093Z,32.20
2023-03-29T14:34:40.676Z,31.39
2023-03-29T14:35:42.725Z,31.41
2023-03-29T14:36:46.415Z,30.99
2023-03-29T14:37:48.790Z,31.18
2023-03-29T14:39:01.904Z,31.07
2023-03-29T14:40:08.763Z,31.24
2023-03-29T14:41:10.545Z,31.03
2023-03-29T14:42:16.326Z,30.92
2023-03-29T14:43:22.384Z,30.96
2023-03-29T14:44:33.121Z,30.69
2023-03-29T14:45:37.941Z,31.37
2023-03-29T14:46:43.137Z,31.33
2023-03-29T14:47:47.332Z,30.72
2023-03-29T14:48:49.380Z,30.99
2023-03-29T14:49:51.317Z,31.34
2023-03-29T14:50:53.347Z,31.13
2023-03-29T14:51:57.657Z,30.75
2023-03-29T14:53:02.198Z,30.86
2023-03-29T14:54:05.702Z,31.35
2023-03-29T14:55:11.144Z,30.55
2023-03-29T14:56:18.063Z,30.62
2023-03-29T14:57:24.592Z,30.59
2023-03-29T14:58:32.915Z,30.11
2023-03-29T14:59:34.769Z,29.73
2023-03-29T15:00:42.564Z,30.75
2023-03-29T15:01:44.719Z,30.52
2023-03-29T15:02:54.760Z,30.54
2023-03-29T15:04:03.336Z,31.01
2023-03-29T15:05:07.552Z,30.79
2023-03-29T15:06:10.258Z,30.27
2023-03-29T15:07:14.096Z,29.98
2023-03-29T15:08:21.430Z,30.39
2023-03-29T15:09:29.346Z,30.30
2023-03-29T15:10:36.751Z,29.86
2023-03-29T15:11:40.863Z,29.88
2023-03-29T15:12:42.863Z,29.58
2023-03-29T15:13:46.640Z,30.10
2023-03-29T15:14:51.587Z,29.89
2023-03-29T15:15:58.864Z,29.72
2023-03-29T15:17:04.125Z,30.15
2023-03-29T15:18:08.022Z,29.65
2023-03-29T15:19:19.470Z,30.32
2023-03-29T15:20:26.086Z,30.03
2023-03-29T15:21:36.159Z,30.74
2023-03-29T15:22:39.971Z,30.24